createdAt,value
2023-03-01T00:00:02.423Z,-1.49
2023-03-01T00:01:02.340Z,-1.39
2023-03-01T00:02:02.331Z,-1.25
2023-03-01T00:03:02.284Z,-1.28
2023-03-01T00:04:02.126Z,-1.25
2023-03-01T00:05:02.058Z,-1.28
2023-03-01T00:06:01.990Z,-1.26
2023-03-01T00:07:01.897Z,-1.43
2023-03-01T00:08:01.823Z,-1.41
2023-03-01T00:09:01.754Z,-1.51
2023-03-01T00:10:01.690Z,-1.44
2023-03-01T00:11:01.682Z,-1.44
2023-03-01T00:12:01.534Z,-1.33
2023-03-01T00:13:01.469Z,-1.31
2023-03-01T00:14:01.386Z,-1.43
2023-03-01T00:15:01.320Z,-1.41
2023-03-01T00:16:01.241Z,-1.39
2023-03-01T00:17:01.181Z,-1.39
2023-03-01T00:18:01.109Z,-1.39
2023-03-01T00:19:01.036Z,-1.29
2023-03-01T00:20:00.953Z,-1.26
2023-03-01T00:21:00.881Z,-1.20
2023-03-01T00:22:00.808Z,-1.08
2023-03-01T00:23:00.735Z,-1.05
2023-03-01T00:24:00.661Z,-1.02
2023-03-01T00:25:00.600Z,-1.02
2023-03-01T00:26:00.519Z,-1.10
2023-03-01T00:27:00.458Z,-1.15
2023-03-01T00:28:00.375Z,-1.23
2023-03-01T00:29:00.303Z,-1.26
2023-03-01T00:30:00.223Z,-1.36
2023-03-01T00:31:00.272Z,-1.47
2023-03-01T00:32:00.155Z,-1.50
2023-03-01T00:33:00.013Z,-1.75
2023-03-01T00:33:59.950Z,-1.86
2023-03-01T00:34:59.868Z,-1.88
2023-03-01T00:35:59.792Z,-1.85
2023-03-01T00:36:59.741Z,-1.71
2023-03-01T00:37:59.649Z,-1.62
2023-03-01T00:38:59.594Z,-1.65
2023-03-01T00:39:59.510Z,-1.49
2023-03-01T00:40:59.433Z,-1.53
2023-03-01T00:41:59.362Z,-1.67
2023-03-01T00:42:59.312Z,-1.62
2023-03-01T00:43:59.232Z,-1.64
2023-03-01T00:44:59.141Z,-1.75
2023-03-01T00:45:59.098Z,-1.82
2023-03-01T00:46:59.005Z,-1.77
2023-03-01T00:47:58.926Z,-1.78
2023-03-01T00:48:58.856Z,-1.90
2023-03-01T00:49:58.781Z,-1.75
2023-03-01T00:50:58.705Z,-1.65
2023-03-01T00:51:58.643Z,-1.54
2023-03-01T00:52:58.565Z,-1.57
2023-03-01T00:53:58.496Z,-1.62
2023-03-01T00:54:58.419Z,-1.59
2023-03-01T00:55:58.360Z,-1.65
2023-03-01T00:56:58.272Z,-1.62
2023-03-01T00:57:58.209Z,-1.62
2023-03-01T00:58:58.123Z,-1.53
2023-03-01T00:59:58.062Z,-1.56
2023-03-01T01:00:57.984Z,-1.67
2023-03-01T01:01:57.904Z,-1.64
2023-03-01T01:02:57.839Z,-1.70
2023-03-01T01:03:57.764Z,-1.67
2023-03-01T01:04:57.708Z,-1.53
2023-03-01T01:05:57.671Z,-1.62
2023-03-01T01:06:57.554Z,-1.64
2023-03-01T01:07:57.470Z,-1.67
2023-03-01T01:08:57.406Z,-1.77
2023-03-01T01:09:57.333Z,-1.75
2023-03-01T01:10:57.252Z,-1.74
2023-03-01T01:11:57.179Z,-1.88
2023-03-01T01:12:57.118Z,-1.88
2023-03-01T01:13:57.032Z,-2.00
2023-03-01T01:14:56.977Z,-2.03
2023-03-01T01:15:56.907Z,-1.96
2023-03-01T01:16:56.831Z,-2.00
2023-03-01T01:17:56.740Z,-2.11
2023-03-01T01:18:56.682Z,-2.13
2023-03-01T01:19:56.627Z,-2.19
2023-03-01T01:20:56.642Z,-2.18
2023-03-01T01:21:56.450Z,-2.19
2023-03-01T01:22:56.376Z,-2.21
2023-03-01T01:23:56.312Z,-2.14
2023-03-01T01:24:56.234Z,-2.06
2023-03-01T01:25:56.164Z,-2.14
2023-03-01T01:26:56.090Z,-2.06
2023-03-01T01:27:56.025Z,-2.01
2023-03-01T01:28:55.939Z,-1.95
2023-03-01T01:29:55.865Z,-2.10
2023-03-01T01:30:55.875Z,-2.03
2023-03-01T01:31:55.765Z,-2.11
2023-03-01T01:32:55.646Z,-2.11
2023-03-01T01:33:55.585Z,-2.10
2023-03-01T01:34:55.515Z,-2.16
2023-03-01T01:35:55.442Z,-2.10
2023-03-01T01:36:55.380Z,-2.07
2023-03-01T01:37:55.284Z,-2.13
2023-03-01T01:38:55.209Z,-2.26
2023-03-01T01:39:55.143Z,-2.33
2023-03-01T01:40:55.065Z,-2.28
2023-03-01T01:41:54.993Z,-2.32
2023-03-01T01:42:54.928Z,-2.32
2023-03-01T01:43:54.843Z,-2.19
2023-03-01T01:44:54.775Z,-2.19
2023-03-01T01:45:54.698Z,-2.08
2023-03-01T01:46:54.629Z,-2.06
2023-03-01T01:47:54.554Z,-1.90
2023-03-01T01:48:54.493Z,-1.86
2023-03-01T01:49:54.406Z,-1.67
2023-03-01T01:50:54.335Z,-1.65
2023-03-01T01:51:54.267Z,-1.62
2023-03-01T01:52:54.194Z,-1.51
2023-03-01T01:53:54.116Z,-1.61
2023-03-01T01:54:54.043Z,-1.50
2023-03-01T01:55:53.971Z,-1.65
2023-03-01T01:56:53.897Z,-1.65
2023-03-01T01:57:53.826Z,-1.71
2023-03-01T01:58:53.751Z,-1.88
2023-03-01T01:59:53.717Z,-1.90
2023-03-01T02:00:53.605Z,-2.01
2023-03-01T02:01:53.534Z,-2.04
2023-03-01T02:02:53.542Z,-2.07
2023-03-01T02:03:53.391Z,-2.18
2023-03-01T02:04:53.316Z,-2.10
2023-03-01T02:05:55.495Z,-2.19
2023-03-01T02:06:53.172Z,-2.21
2023-03-01T02:07:53.099Z,-2.25
2023-03-01T02:08:53.030Z,-2.28
2023-03-01T02:09:52.946Z,-2.40
2023-03-01T02:10:52.878Z,-2.53
2023-03-01T02:11:52.804Z,-2.48
2023-03-01T02:12:52.731Z,-2.47
2023-03-01T02:13:52.659Z,-2.44
2023-03-01T02:14:52.588Z,-2.55
2023-03-01T02:15:52.536Z,-2.47
2023-03-01T02:16:52.437Z,-2.50
2023-03-01T02:17:52.362Z,-2.58
2023-03-01T02:18:52.296Z,-2.58
2023-03-01T02:19:52.261Z,-2.66
2023-03-01T02:20:52.151Z,-2.65
2023-03-01T02:21:52.100Z,-2.77
2023-03-01T02:22:52.000Z,-2.77
2023-03-01T02:23:51.928Z,-2.58
2023-03-01T02:24:51.866Z,-2.53
2023-03-01T02:25:51.784Z,-2.44
2023-03-01T02:26:51.708Z,-2.38
2023-03-01T02:27:51.638Z,-2.40
2023-03-01T02:28:51.570Z,-2.47
2023-03-01T02:29:51.490Z,-2.48
2023-03-01T02:30:51.422Z,-2.53
2023-03-01T02:31:51.368Z,-2.44
2023-03-01T02:32:51.295Z,-2.41
2023-03-01T02:33:51.212Z,-2.53
2023-03-01T02:34:51.152Z,-2.43
2023-03-01T02:35:51.148Z,-2.44
2023-03-01T02:36:50.978Z,-2.38
2023-03-01T02:37:50.909Z,-2.33
2023-03-01T02:38:50.837Z,-2.33
2023-03-01T02:39:50.762Z,-2.38
2023-03-01T02:40:50.712Z,-2.38
2023-03-01T02:41:50.619Z,-2.35
2023-03-01T02:42:50.551Z,-2.24
2023-03-01T02:43:50.468Z,-2.19
2023-03-01T02:44:50.398Z,-2.22
2023-03-01T02:45:50.341Z,-2.19
2023-03-01T02:46:50.300Z,-2.16
2023-03-01T02:47:50.175Z,-2.33
2023-03-01T02:48:50.128Z,-2.37
2023-03-01T02:49:50.027Z,-2.32
2023-03-01T02:50:49.962Z,-2.25
2023-03-01T02:51:49.884Z,-2.37
2023-03-01T02:52:49.821Z,-2.40
2023-03-01T02:53:49.734Z,-2.33
2023-03-01T02:54:49.664Z,-2.41
2023-03-01T02:55:49.591Z,-2.40
2023-03-01T02:56:49.519Z,-2.50
2023-03-01T02:57:49.447Z,-2.50
2023-03-01T02:58:49.372Z,-2.56
2023-03-01T02:59:49.297Z,-2.69
2023-03-01T03:00:49.299Z,-2.64
2023-03-01T03:01:49.167Z,-2.61
2023-03-01T03:02:49.080Z,-2.66
2023-03-01T03:03:49.057Z,-2.74
2023-03-01T03:04:48.938Z,-2.58
2023-03-01T03:05:48.860Z,-2.48
2023-03-01T03:06:48.877Z,-2.56
2023-03-01T03:07:48.712Z,-2.56
2023-03-01T03:08:48.640Z,-2.53
2023-03-01T03:09:48.568Z,-2.55
2023-03-01T03:10:48.495Z,-2.47
2023-03-01T03:11:48.430Z,-2.53
2023-03-01T03:12:48.347Z,-2.38
2023-03-01T03:13:48.273Z,-2.32
2023-03-01T03:14:48.203Z,-2.24
2023-03-01T03:15:48.129Z,-2.14
2023-03-01T03:16:48.066Z,-2.10
2023-03-01T03:17:47.989Z,-2.11
2023-03-01T03:18:47.917Z,-2.18
2023-03-01T03:19:47.834Z,-2.19
2023-03-01T03:20:47.763Z,-2.32
2023-03-01T03:21:47.692Z,-2.25
2023-03-01T03:22:47.626Z,-2.29
2023-03-01T03:23:47.540Z,-2.44
2023-03-01T03:24:47.472Z,-2.41
2023-03-01T03:25:47.394Z,-2.55
2023-03-01T03:26:47.324Z,-2.59
2023-03-01T03:27:47.252Z,-2.53
2023-03-01T03:28:47.177Z,-2.56
2023-03-01T03:29:47.117Z,-2.59
2023-03-01T03:30:47.030Z,-2.71
2023-03-01T03:31:47.030Z,-2.64
2023-03-01T03:32:46.885Z,-2.65
2023-03-01T03:33:46.810Z,-2.69
2023-03-01T03:34:46.737Z,-2.77
2023-03-01T03:35:46.705Z,-2.76
2023-03-01T03:36:46.592Z,-2.66
2023-03-01T03:37:46.512Z,-2.74
2023-03-01T03:38:46.444Z,-2.87
2023-03-01T03:39:46.368Z,-3.08
2023-03-01T03:40:46.297Z,-3.02
2023-03-01T03:41:46.229Z,-2.94
2023-03-01T03:42:46.148Z,-2.97
2023-03-01T03:43:46.087Z,-3.10
2023-03-01T03:44:45.999Z,-3.07
2023-03-01T03:45:46.023Z,-3.05
2023-03-01T03:46:45.857Z,-2.93
2023-03-01T03:47:45.790Z,-2.83
2023-03-01T03:48:45.718Z,-2.80
2023-03-01T03:49:45.639Z,-2.76
2023-03-01T03:50:45.563Z,-2.68
2023-03-01T03:51:45.492Z,-2.77
2023-03-01T03:52:45.413Z,-2.87
2023-03-01T03:53:45.347Z,-2.95
2023-03-01T03:54:45.268Z,-3.00
2023-03-01T03:55:45.201Z,-2.94
2023-03-01T03:56:45.136Z,-2.95
2023-03-01T03:57:45.049Z,-3.02
2023-03-01T03:58:44.981Z,-3.02
2023-03-01T03:59:44.908Z,-3.02
2023-03-01T04:00:44.835Z,-2.97
2023-03-01T04:01:44.888Z,-2.98
2023-03-01T04:02:44.724Z,-2.84
2023-03-01T04:03:44.641Z,-3.04
2023-03-01T04:04:44.538Z,-3.04
2023-03-01T04:05:44.480Z,-3.02
2023-03-01T04:06:44.388Z,-3.07
2023-03-01T04:07:44.319Z,-3.07
2023-03-01T04:08:44.243Z,-3.05
2023-03-01T04:09:44.173Z,-2.93
2023-03-01T04:10:44.106Z,-2.84
2023-03-01T04:11:44.022Z,-2.82
2023-03-01T04:12:43.946Z,-2.90
2023-03-01T04:13:43.887Z,-3.00
2023-03-01T04:14:43.810Z,-2.94
2023-03-01T04:15:43.734Z,-3.07
2023-03-01T04:16:43.670Z,-3.07
2023-03-01T04:17:43.584Z,-3.15
2023-03-01T04:18:43.508Z,-3.21
2023-03-01T04:19:43.465Z,-3.21
2023-03-01T04:20:43.420Z,-3.26
2023-03-01T04:21:43.325Z,-3.41
2023-03-01T04:22:43.348Z,-3.39
2023-03-01T04:23:43.329Z,-3.36
2023-03-01T04:24:43.075Z,-3.46
2023-03-01T04:25:42.997Z,-3.34
2023-03-01T04:26:42.921Z,-3.31
2023-03-01T04:27:42.885Z,-3.44
2023-03-01T04:28:42.775Z,-3.34
2023-03-01T04:29:42.707Z,-3.33
2023-03-01T04:30:42.628Z,-3.31
2023-03-01T04:31:42.607Z,-3.21
2023-03-01T04:32:42.559Z,-3.08
2023-03-01T04:33:42.413Z,-3.12
2023-03-01T04:34:42.335Z,-3.05
2023-03-01T04:35:42.347Z,-2.98
2023-03-01T04:36:42.282Z,-2.83
2023-03-01T04:37:42.119Z,-2.72
2023-03-01T04:38:42.043Z,-2.62
2023-03-01T04:39:41.971Z,-2.53
2023-03-01T04:40:41.896Z,-2.64
2023-03-01T04:41:41.827Z,-2.50
2023-03-01T04:42:41.745Z,-2.47
2023-03-01T04:43:41.682Z,-2.48
2023-03-01T04:44:41.598Z,-2.48
2023-03-01T04:45:41.621Z,-2.51
2023-03-01T04:46:41.463Z,-2.51
2023-03-01T04:47:41.410Z,-2.50
2023-03-01T04:48:41.322Z,-2.62
2023-03-01T04:49:41.238Z,-2.65
2023-03-01T04:50:41.159Z,-2.76
2023-03-01T04:51:41.088Z,-2.77
2023-03-01T04:52:41.011Z,-2.79
2023-03-01T04:53:40.942Z,-2.74
2023-03-01T04:54:40.866Z,-2.82
2023-03-01T04:55:40.794Z,-2.82
2023-03-01T04:56:40.720Z,-2.87
2023-03-01T04:57:40.695Z,-3.02
2023-03-01T04:58:40.576Z,-3.07
2023-03-01T04:59:40.501Z,-3.02
2023-03-01T05:00:40.424Z,-3.07
2023-03-01T05:01:40.357Z,-3.07
2023-03-01T05:02:40.296Z,-3.10
2023-03-01T05:03:42.057Z,-3.08
2023-03-01T05:04:40.188Z,-3.04
2023-03-01T05:05:40.055Z,-3.19
2023-03-01T05:06:39.986Z,-3.23
2023-03-01T05:07:39.916Z,-3.25
2023-03-01T05:08:39.847Z,-3.26
2023-03-01T05:09:39.771Z,-3.23
2023-03-01T05:10:39.702Z,-3.31
2023-03-01T05:11:39.616Z,-3.26
2023-03-01T05:12:39.543Z,-3.18
2023-03-01T05:13:39.470Z,-3.21
2023-03-01T05:14:39.397Z,-3.28
2023-03-01T05:15:39.336Z,-3.26
2023-03-01T05:16:39.249Z,-3.37
2023-03-01T05:17:39.182Z,-3.34
2023-03-01T05:18:39.109Z,-3.28
2023-03-01T05:19:39.031Z,-3.18
2023-03-01T05:20:38.955Z,-3.10
2023-03-01T05:21:38.895Z,-3.05
2023-03-01T05:22:38.847Z,-3.10
2023-03-01T05:23:38.742Z,-3.10
2023-03-01T05:24:38.665Z,-3.00
2023-03-01T05:25:38.596Z,-3.05
2023-03-01T05:26:38.514Z,-3.05
2023-03-01T05:27:38.443Z,-2.98
2023-03-01T05:28:38.367Z,-3.00
2023-03-01T05:29:38.298Z,-2.98
2023-03-01T05:30:38.220Z,-2.94
2023-03-01T05:31:38.146Z,-2.90
2023-03-01T05:32:38.074Z,-2.94
2023-03-01T05:33:38.856Z,-2.79
2023-03-01T05:34:37.935Z,-2.93
2023-03-01T05:35:37.902Z,-2.84
2023-03-01T05:36:37.777Z,-2.82
2023-03-01T05:37:37.705Z,-2.89
2023-03-01T05:38:37.632Z,-3.04
2023-03-01T05:39:37.600Z,-3.10
2023-03-01T05:40:37.482Z,-3.13
2023-03-01T05:41:37.448Z,-3.26
2023-03-01T05:42:37.337Z,-3.28
2023-03-01T05:43:37.269Z,-3.26
2023-03-01T05:44:37.189Z,-3.25
2023-03-01T05:45:37.211Z,-3.28
2023-03-01T05:46:37.052Z,-3.25
2023-03-01T05:47:36.972Z,-3.30
2023-03-01T05:48:36.901Z,-3.28
2023-03-01T05:49:38.946Z,-3.36
2023-03-01T05:50:36.786Z,-3.36
2023-03-01T05:51:36.715Z,-3.26
2023-03-01T05:52:36.663Z,-3.21
2023-03-01T05:53:36.528Z,-3.19
2023-03-01T05:54:36.454Z,-3.10
2023-03-01T05:55:36.382Z,-3.12
2023-03-01T05:56:36.331Z,-3.10
2023-03-01T05:57:36.239Z,-3.08
2023-03-01T05:58:36.197Z,-3.07
2023-03-01T05:59:36.093Z,-3.10
2023-03-01T06:00:36.023Z,-3.08
2023-03-01T06:01:35.943Z,-3.12
2023-03-01T06:02:35.868Z,-3.13
2023-03-01T06:03:35.806Z,-3.21
2023-03-01T06:04:35.761Z,-3.25
2023-03-01T06:05:35.707Z,-3.25
2023-03-01T06:06:35.579Z,-3.13
2023-03-01T06:07:35.512Z,-3.18
2023-03-01T06:08:35.427Z,-3.28
2023-03-01T06:09:35.381Z,-3.16
2023-03-01T06:10:35.279Z,-3.05
2023-03-01T06:11:35.212Z,-3.10
2023-03-01T06:12:35.133Z,-3.12
2023-03-01T06:13:35.075Z,-3.05
2023-03-01T06:14:35.013Z,-3.07
2023-03-01T06:15:34.955Z,-3.08
2023-03-01T06:16:34.843Z,-3.10
2023-03-01T06:17:34.772Z,-3.05
2023-03-01T06:18:34.694Z,-3.02
2023-03-01T06:19:34.620Z,-3.00
2023-03-01T06:20:34.548Z,-2.89
2023-03-01T06:21:34.477Z,-2.87
2023-03-01T06:22:34.406Z,-2.87
2023-03-01T06:23:34.330Z,-2.87
2023-03-01T06:24:34.253Z,-2.83
2023-03-01T06:25:34.195Z,-2.83
2023-03-01T06:26:34.109Z,-2.84
2023-03-01T06:27:34.039Z,-2.95
2023-03-01T06:28:33.968Z,-2.87
2023-03-01T06:29:33.897Z,-2.87
2023-03-01T06:30:33.820Z,-2.76
2023-03-01T06:31:33.794Z,-2.74
2023-03-01T06:32:33.668Z,-2.80
2023-03-01T06:33:33.606Z,-2.74
2023-03-01T06:34:33.522Z,-2.77
2023-03-01T06:35:33.532Z,-2.71
2023-03-01T06:36:33.416Z,-2.62
2023-03-01T06:37:33.316Z,-2.66
2023-03-01T06:38:33.236Z,-2.58
2023-03-01T06:39:33.159Z,-2.53
2023-03-01T06:40:33.084Z,-2.50
2023-03-01T06:41:33.027Z,-2.47
2023-03-01T06:42:32.959Z,-2.37
2023-03-01T06:43:32.872Z,-2.50
2023-03-01T06:44:32.790Z,-2.48
2023-03-01T06:45:32.730Z,-2.40
2023-03-01T06:46:32.969Z,-2.51
2023-03-01T06:47:32.579Z,-2.50
2023-03-01T06:48:32.503Z,-2.41
2023-03-01T06:49:32.435Z,-2.41
2023-03-01T06:50:32.410Z,-2.47
2023-03-01T06:51:32.285Z,-2.46
2023-03-01T06:52:32.210Z,-2.35
2023-03-01T06:53:32.139Z,-2.26
2023-03-01T06:54:32.064Z,-2.18
2023-03-01T06:55:31.997Z,-2.22
2023-03-01T06:56:32.264Z,-2.26
2023-03-01T06:57:31.841Z,-2.25
2023-03-01T06:58:31.767Z,-2.13
2023-03-01T06:59:31.709Z,-2.16
2023-03-01T07:00:31.647Z,-2.04
2023-03-01T07:01:31.599Z,-2.08
2023-03-01T07:02:31.585Z,-1.98
2023-03-01T07:03:52.386Z,-1.89
2023-03-01T07:04:31.332Z,-1.88
2023-03-01T07:05:31.260Z,-1.83
2023-03-01T07:06:31.626Z,-1.75
2023-03-01T07:07:31.127Z,-1.68
2023-03-01T07:08:31.069Z,-1.57
2023-03-01T07:09:30.979Z,-1.61
2023-03-01T07:10:30.963Z,-1.51
2023-03-01T07:11:30.830Z,-1.44
2023-03-01T07:12:30.757Z,-1.39
2023-03-01T07:13:30.680Z,-1.43
2023-03-01T07:14:30.617Z,-1.26
2023-03-01T07:15:30.553Z,-1.21
2023-03-01T07:16:30.691Z,-1.05
2023-03-01T07:17:30.417Z,-0.81
2023-03-01T07:18:30.332Z,-0.45
2023-03-01T07:19:30.257Z,-0.13
2023-03-01T07:20:30.312Z,-0.03
2023-03-01T07:21:30.190Z,0.17
2023-03-01T07:22:30.110Z,0.60
2023-03-01T07:23:30.048Z,0.96
2023-03-01T07:24:29.898Z,1.21
2023-03-01T07:25:29.850Z,1.17
2023-03-01T07:26:30.056Z,1.35
2023-03-01T07:27:29.693Z,1.35
2023-03-01T07:28:29.620Z,1.42
2023-03-01T07:29:29.554Z,1.63
2023-03-01T07:30:29.494Z,1.85
2023-03-01T07:31:29.414Z,1.93
2023-03-01T07:32:29.439Z,2.09
2023-03-01T07:33:29.312Z,2.58
2023-03-01T07:34:29.250Z,2.79
2023-03-01T07:35:29.182Z,3.12
2023-03-01T07:36:29.248Z,3.44
2023-03-01T07:37:29.009Z,4.07
2023-03-01T07:38:28.958Z,4.35
2023-03-01T07:39:28.880Z,4.31
2023-03-01T07:40:28.831Z,4.34
2023-03-01T07:41:28.742Z,4.44
2023-03-01T07:42:28.678Z,4.24
2023-03-01T07:43:28.612Z,4.31
2023-03-01T07:44:28.546Z,4.08
2023-03-01T07:45:28.556Z,3.84
2023-03-01T07:46:28.569Z,3.68
2023-03-01T07:47:28.409Z,3.64
2023-03-01T07:48:28.292Z,3.49
2023-03-01T07:49:28.229Z,3.46
2023-03-01T07:50:28.235Z,3.64
2023-03-01T07:51:28.120Z,3.90
2023-03-01T07:52:28.035Z,4.08
2023-03-01T07:53:27.959Z,4.25
2023-03-01T07:54:27.899Z,4.35
2023-03-01T07:55:27.832Z,4.61
2023-03-01T07:56:27.778Z,4.90
2023-03-01T07:57:27.713Z,5.14
2023-03-01T07:58:27.669Z,5.15
2023-03-01T07:59:27.604Z,5.44
2023-03-01T08:00:27.556Z,5.38
2023-03-01T08:01:27.482Z,5.44
2023-03-01T08:02:27.418Z,5.40
2023-03-01T08:03:27.325Z,5.38
2023-03-01T08:04:27.275Z,5.35
2023-03-01T08:05:27.201Z,5.29
2023-03-01T08:06:27.133Z,5.20
2023-03-01T08:07:27.072Z,5.40
2023-03-01T08:08:27.010Z,5.26
2023-03-01T08:09:26.969Z,5.17
2023-03-01T08:10:26.982Z,5.08
2023-03-01T08:11:26.887Z,4.97
2023-03-01T08:12:26.757Z,5.02
2023-03-01T08:13:26.690Z,5.08
2023-03-01T08:14:26.630Z,5.05
2023-03-01T08:15:26.641Z,5.08
2023-03-01T08:16:26.572Z,5.14
2023-03-01T08:17:26.444Z,5.19
2023-03-01T08:18:26.395Z,5.26
2023-03-01T08:19:26.316Z,5.35
2023-03-01T08:20:26.401Z,5.44
2023-03-01T08:21:26.193Z,5.66
2023-03-01T08:22:26.136Z,5.77
2023-03-01T08:23:26.064Z,5.95
2023-03-01T08:24:26.000Z,6.13
2023-03-01T08:25:25.937Z,6.30
2023-03-01T08:26:25.880Z,6.53
2023-03-01T08:27:25.815Z,6.51
2023-03-01T08:28:25.755Z,6.53
2023-03-01T08:29:25.720Z,6.57
2023-03-01T08:30:25.626Z,6.79
2023-03-01T08:31:25.626Z,6.78
2023-03-01T08:32:25.560Z,6.78
2023-03-01T08:33:25.462Z,7.14
2023-03-01T08:34:25.388Z,7.29
2023-03-01T08:35:25.366Z,7.66
2023-03-01T08:36:25.261Z,7.85
2023-03-01T08:37:25.213Z,8.12
2023-03-01T08:38:25.141Z,8.32
2023-03-01T08:39:25.106Z,8.50
2023-03-01T08:40:25.077Z,8.52
2023-03-01T08:41:24.960Z,8.43
2023-03-01T08:42:24.903Z,8.45
2023-03-01T08:43:25.525Z,8.46
2023-03-01T08:44:24.782Z,8.52
2023-03-01T08:45:24.738Z,8.65
2023-03-01T08:46:24.666Z,9.08
2023-03-01T08:47:24.609Z,9.08
2023-03-01T08:48:24.549Z,8.67
2023-03-01T08:49:24.501Z,8.50
2023-03-01T08:50:24.477Z,8.43
2023-03-01T08:51:24.380Z,8.42
2023-03-01T08:52:24.310Z,8.60
2023-03-01T08:53:24.900Z,8.93
2023-03-01T08:54:24.205Z,9.10
2023-03-01T08:55:24.148Z,8.98
2023-03-01T08:56:24.093Z,9.10
2023-03-01T08:57:24.021Z,9.32
2023-03-01T08:58:23.961Z,9.35
2023-03-01T08:59:23.903Z,9.44
2023-03-01T09:00:23.861Z,9.63
2023-03-01T09:01:23.785Z,9.71
2023-03-01T09:02:23.864Z,9.68
2023-03-01T09:03:23.673Z,9.95
2023-03-01T09:04:23.609Z,9.89
2023-03-01T09:05:23.553Z,9.86
2023-03-01T09:06:23.511Z,9.86
2023-03-01T09:07:23.443Z,9.65
2023-03-01T09:08:23.406Z,8.89
2023-03-01T09:09:23.348Z,8.85
2023-03-01T09:10:23.353Z,8.85
2023-03-01T09:11:23.217Z,8.78
2023-03-01T09:12:23.149Z,8.65
2023-03-01T09:13:23.092Z,8.91
2023-03-01T09:14:23.037Z,8.54
2023-03-01T09:15:22.980Z,8.18
2023-03-01T09:16:22.963Z,8.36
2023-03-01T09:17:22.868Z,8.40
2023-03-01T09:18:22.811Z,8.10
2023-03-01T09:19:22.747Z,8.00
2023-03-01T09:20:22.723Z,8.21
2023-03-01T09:21:37.271Z,8.02
2023-03-01T09:22:22.574Z,7.85
2023-03-01T09:23:22.518Z,7.82
2023-03-01T09:24:22.458Z,7.70
2023-03-01T09:25:22.439Z,8.21
2023-03-01T09:26:22.351Z,9.16
2023-03-01T09:27:22.289Z,9.37
2023-03-01T09:28:29.822Z,9.67
2023-03-01T09:29:22.180Z,9.93
2023-03-01T09:30:22.260Z,10.26
2023-03-01T09:31:22.055Z,10.25
2023-03-01T09:32:22.023Z,10.22
2023-03-01T09:33:21.948Z,10.39
2023-03-01T09:34:21.893Z,10.42
2023-03-01T09:35:21.834Z,10.47
2023-03-01T09:36:21.802Z,10.58
2023-03-01T09:37:21.713Z,10.63
2023-03-01T09:38:21.660Z,10.90
2023-03-01T09:39:21.648Z,10.98
2023-03-01T09:40:21.636Z,11.17
2023-03-01T09:41:21.480Z,11.45
2023-03-01T09:42:21.424Z,11.42
2023-03-01T09:43:21.376Z,11.30
2023-03-01T09:44:21.316Z,11.30
2023-03-01T09:45:21.259Z,11.60
2023-03-01T09:46:21.209Z,11.69
2023-03-01T09:47:21.171Z,11.78
2023-03-01T09:48:21.076Z,11.24
2023-03-01T09:49:21.020Z,10.75
2023-03-01T09:50:21.020Z,10.70
2023-03-01T09:51:20.921Z,10.80
2023-03-01T09:52:20.852Z,10.84
2023-03-01T09:53:20.843Z,10.95
2023-03-01T09:54:20.774Z,11.19
2023-03-01T09:55:20.768Z,11.20
2023-03-01T09:56:20.643Z,11.20
2023-03-01T09:57:20.568Z,11.17
2023-03-01T09:58:20.507Z,11.36
2023-03-01T09:59:22.229Z,11.53
2023-03-01T10:00:20.427Z,11.60
2023-03-01T10:01:20.349Z,11.78
2023-03-01T10:02:20.279Z,11.84
2023-03-01T10:03:20.225Z,11.77
2023-03-01T10:04:20.337Z,11.96
2023-03-01T10:05:20.115Z,11.94
2023-03-01T10:06:33.982Z,11.98
2023-03-01T10:07:19.995Z,11.82
2023-03-01T10:08:19.940Z,11.12
2023-03-01T10:09:19.886Z,10.91
2023-03-01T10:10:19.823Z,11.13
2023-03-01T10:11:21.109Z,11.26
2023-03-01T10:12:19.722Z,11.44
2023-03-01T10:13:19.673Z,11.35
2023-03-01T10:14:19.601Z,11.28
2023-03-01T10:15:19.540Z,11.39
2023-03-01T10:16:19.575Z,11.17
2023-03-01T10:17:20.396Z,11.28
2023-03-01T10:18:19.420Z,11.64
2023-03-01T10:19:19.311Z,11.20
2023-03-01T10:20:19.251Z,11.59
2023-03-01T10:21:19.199Z,11.36
2023-03-01T10:22:19.136Z,11.38
2023-03-01T10:23:19.076Z,10.95
2023-03-01T10:24:19.015Z,10.36
2023-03-01T10:25:18.978Z,10.58
2023-03-01T10:26:19.015Z,11.21
2023-03-01T10:27:18.845Z,11.41
2023-03-01T10:28:18.808Z,11.24
2023-03-01T10:29:18.732Z,10.76
2023-03-01T10:30:18.798Z,11.19
2023-03-01T10:31:18.703Z,11.59
2023-03-01T10:32:18.576Z,11.98
2023-03-01T10:33:18.503Z,11.98
2023-03-01T10:34:18.453Z,12.13
2023-03-01T10:35:18.391Z,11.90
2023-03-01T10:36:18.357Z,11.17
2023-03-01T10:37:18.268Z,10.99
2023-03-01T10:38:18.212Z,10.95
2023-03-01T10:39:18.154Z,10.83
2023-03-01T10:40:18.093Z,10.47
2023-03-01T10:41:18.043Z,10.69
2023-03-01T10:42:17.979Z,10.16
2023-03-01T10:43:17.923Z,10.94
2023-03-01T10:44:17.873Z,10.51
2023-03-01T10:45:17.817Z,9.65
2023-03-01T10:46:17.810Z,9.89
2023-03-01T10:47:17.721Z,10.20
2023-03-01T10:48:17.633Z,10.51
2023-03-01T10:49:17.581Z,10.43
2023-03-01T10:50:17.552Z,10.35
2023-03-01T10:51:17.463Z,11.02
2023-03-01T10:52:17.405Z,11.41
2023-03-01T10:53:17.350Z,11.62
2023-03-01T10:54:17.355Z,11.94
2023-03-01T10:55:17.354Z,12.00
2023-03-01T10:56:17.279Z,11.93
2023-03-01T10:57:17.184Z,11.98
2023-03-01T10:58:17.062Z,11.74
2023-03-01T10:59:17.006Z,12.13
2023-03-01T11:00:17.019Z,12.25
2023-03-01T11:01:16.951Z,12.19
2023-03-01T11:02:24.589Z,12.25
2023-03-01T11:03:16.775Z,12.30
2023-03-01T11:04:16.807Z,12.07
2023-03-01T11:05:16.668Z,12.13
2023-03-01T11:06:16.605Z,12.18
2023-03-01T11:07:16.546Z,12.43
2023-03-01T11:08:16.490Z,12.38
2023-03-01T11:09:16.474Z,12.30
2023-03-01T11:10:16.417Z,11.79
2023-03-01T11:11:16.326Z,12.05
2023-03-01T11:12:16.302Z,12.26
2023-03-01T11:13:16.219Z,12.80
2023-03-01T11:14:25.976Z,12.66
2023-03-01T11:15:16.094Z,12.55
2023-03-01T11:16:16.162Z,12.69
2023-03-01T11:17:16.021Z,12.22
2023-03-01T11:18:15.920Z,12.07
2023-03-01T11:19:15.868Z,12.49
2023-03-01T11:20:15.818Z,12.34
2023-03-01T11:21:15.769Z,12.16
2023-03-01T11:22:15.735Z,11.72
2023-03-01T11:23:15.676Z,11.39
2023-03-01T11:24:15.605Z,11.49
2023-03-01T11:25:15.530Z,10.78
2023-03-01T11:26:15.470Z,11.45
2023-03-01T11:27:15.441Z,11.78
2023-03-01T11:28:15.362Z,11.59
2023-03-01T11:29:15.301Z,11.56
2023-03-01T11:30:15.294Z,11.63
2023-03-01T11:31:15.256Z,11.66
2023-03-01T11:32:15.249Z,11.62
2023-03-01T11:33:15.126Z,11.66
2023-03-01T11:34:15.024Z,11.78
2023-03-01T11:35:14.970Z,11.96
2023-03-01T11:36:14.979Z,11.90
2023-03-01T11:37:14.896Z,10.81
2023-03-01T11:38:14.810Z,10.16
2023-03-01T11:39:14.737Z,10.01
2023-03-01T11:40:14.831Z,9.85
2023-03-01T11:41:14.628Z,9.50
2023-03-01T11:42:19.148Z,9.75
2023-03-01T11:43:14.568Z,10.02
2023-03-01T11:44:14.457Z,10.51
2023-03-01T11:45:14.415Z,10.17
2023-03-01T11:46:14.428Z,10.01
2023-03-01T11:47:14.508Z,9.89
2023-03-01T11:48:14.225Z,9.78
2023-03-01T11:49:14.178Z,9.63
2023-03-01T11:50:14.132Z,9.55
2023-03-01T11:51:15.680Z,9.48
2023-03-01T11:52:14.000Z,9.48
2023-03-01T11:53:13.933Z,9.41
2023-03-01T11:54:13.872Z,9.34
2023-03-01T11:55:13.850Z,9.03
2023-03-01T11:56:13.782Z,9.01
2023-03-01T11:57:13.699Z,9.04
2023-03-01T11:58:13.644Z,8.85
2023-03-01T11:59:13.588Z,8.71
2023-03-01T12:00:13.514Z,8.67
2023-03-01T12:01:13.453Z,8.71
2023-03-01T12:02:13.442Z,8.46
2023-03-01T12:03:13.332Z,8.28
2023-03-01T12:04:13.278Z,8.32
2023-03-01T12:05:13.212Z,8.39
2023-03-01T12:06:13.152Z,8.43
2023-03-01T12:07:13.083Z,8.45
2023-03-01T12:08:13.038Z,8.27
2023-03-01T12:09:12.956Z,8.17
2023-03-01T12:10:12.922Z,8.22
2023-03-01T12:11:12.830Z,8.25
2023-03-01T12:12:12.774Z,8.29
2023-03-01T12:13:12.702Z,8.37
2023-03-01T12:14:12.647Z,8.34
2023-03-01T12:15:12.608Z,8.46
2023-03-01T12:16:12.557Z,8.32
2023-03-01T12:17:12.534Z,8.39
2023-03-01T12:18:12.386Z,8.37
2023-03-01T12:19:12.324Z,8.40
2023-03-01T12:20:12.257Z,8.31
2023-03-01T12:21:12.258Z,8.40
2023-03-01T12:22:12.144Z,8.52
2023-03-01T12:23:20.422Z,8.49
2023-03-01T12:24:12.015Z,8.61
2023-03-01T12:25:11.938Z,8.54
2023-03-01T12:26:13.330Z,8.54
2023-03-01T12:27:11.813Z,8.50
2023-03-01T12:28:11.761Z,8.47
2023-03-01T12:29:11.678Z,8.55
2023-03-01T12:30:11.616Z,8.61
2023-03-01T12:31:11.615Z,8.68
2023-03-01T12:32:11.622Z,8.71
2023-03-01T12:33:11.452Z,8.67
2023-03-01T12:34:11.365Z,8.55
2023-03-01T12:35:11.302Z,8.32
2023-03-01T12:36:11.254Z,8.37
2023-03-01T12:37:11.167Z,8.29
2023-03-01T12:38:11.125Z,8.45
2023-03-01T12:39:11.034Z,8.37
2023-03-01T12:40:10.973Z,8.47
2023-03-01T12:41:10.909Z,8.47
2023-03-01T12:42:10.841Z,8.50
2023-03-01T12:43:10.776Z,8.43
2023-03-01T12:44:10.719Z,8.32
2023-03-01T12:45:10.646Z,8.32
2023-03-01T12:46:10.627Z,8.39
2023-03-01T12:47:10.516Z,8.42
2023-03-01T12:48:10.463Z,8.55
2023-03-01T12:49:10.392Z,8.54
2023-03-01T12:50:10.322Z,8.54
2023-03-01T12:51:10.253Z,8.54
2023-03-01T12:52:10.197Z,8.50
2023-03-01T12:53:10.130Z,8.49
2023-03-01T12:54:10.071Z,8.55
2023-03-01T12:55:10.008Z,8.65
2023-03-01T12:56:09.936Z,8.60
2023-03-01T12:57:09.863Z,8.61
2023-03-01T12:58:09.800Z,8.64